Krimpen aan den IJssel, Netherlands
Current Conditions -  °F | °C
As of 9:25 AM on Tuesday 21 Oct 2014 (Local Time) from EHRD Reporting Station
Drizzle Drizzle  
Wind Chill: 55°   Ceiling: 1400
Heat Index: 55°   Visibility: 6mi
Dew Point: 52°   Wind: 21mph
Humidity: 88%   Direction: 200°SSW
Pressure: 29.62"   Gusts: NA
Location:  51.92°N, 4.6°E
Report Text: EHRD 210725Z AUTO 20018KT 150V220 9999 DZ SCT012 BKN014SCT015CB OVC016 13/11 Q1003 TEMPO 4500
Loading
Personal Weather Stations






























Interactive Weather Map
Tropical Storm Tracking
New forecast layout! Learn more

10-Day Weather Forecast

Advertisements
Track Severe Weather on mobile